createdAt,value
2022-10-21T00:00:59.034Z,13.50
2022-10-21T00:03:26.910Z,12.88
2022-10-21T00:05:54.016Z,13.18
2022-10-21T00:08:21.672Z,13.23
2022-10-21T00:14:36.079Z,12.95
2022-10-21T00:17:02.925Z,14.15
2022-10-21T00:19:29.797Z,13.63
2022-10-21T00:21:56.658Z,15.00
2022-10-21T00:24:23.543Z,15.75
2022-10-21T00:26:51.242Z,14.75
2022-10-21T00:29:18.164Z,14.77
2022-10-21T00:31:45.087Z,15.18
2022-10-21T00:34:11.948Z,15.15
2022-10-21T00:36:38.855Z,15.85
2022-10-21T00:39:05.774Z,16.63
2022-10-21T00:45:20.098Z,15.80
2022-10-21T00:48:13.369Z,16.27
2022-10-21T00:54:35.187Z,15.80
2022-10-21T00:57:02.161Z,16.85
2022-10-21T00:59:34.251Z,15.93
2022-10-21T01:02:01.197Z,16.42
2022-10-21T01:04:28.148Z,16.95
2022-10-21T01:06:55.597Z,17.67
2022-10-21T01:09:23.098Z,17.63
2022-10-21T01:11:50.408Z,16.40
2022-10-21T01:14:56.471Z,17.30
2022-10-21T01:17:47.618Z,16.63
2022-10-21T01:20:45.248Z,17.40
2022-10-21T01:23:27.137Z,17.60
2022-10-21T01:26:19.585Z,17.13
2022-10-21T01:29:04.533Z,17.70
2022-10-21T01:31:44.091Z,17.98
2022-10-21T01:34:15.227Z,19.15
2022-10-21T01:36:50.742Z,17.40
2022-10-21T01:39:29.156Z,18.02
2022-10-21T01:42:05.497Z,17.77
2022-10-21T01:44:46.663Z,17.67
2022-10-21T01:47:19.445Z,17.52
2022-10-21T01:49:57.859Z,17.50
2022-10-21T01:52:24.810Z,17.48
2022-10-21T01:54:59.371Z,18.83
2022-10-21T01:59:58.913Z,18.63
2022-10-21T02:02:29.253Z,17.20
2022-10-21T02:04:58.809Z,16.83
2022-10-21T02:07:25.705Z,17.45
2022-10-21T02:09:52.580Z,17.27
2022-10-21T02:12:20.685Z,18.05
2022-10-21T02:14:53.367Z,18.17
2022-10-21T02:17:22.444Z,17.02
2022-10-21T02:19:49.365Z,16.88
2022-10-21T02:22:22.025Z,17.45
2022-10-21T02:25:17.645Z,17.90
2022-10-21T02:27:44.784Z,16.85
2022-10-21T02:30:12.208Z,16.08
2022-10-21T02:32:42.106Z,16.70
2022-10-21T02:35:41.471Z,17.33
2022-10-21T02:38:30.515Z,17.52
2022-10-21T02:41:02.557Z,17.27
2022-10-21T02:43:29.373Z,16.13
2022-10-21T02:46:01.798Z,17.20
2022-10-21T02:48:28.742Z,16.70
2022-10-21T02:50:55.672Z,17.05
2022-10-21T02:53:22.681Z,16.63
2022-10-21T02:55:49.614Z,15.50
2022-10-21T02:58:16.461Z,15.90
2022-10-21T03:00:43.457Z,16.63
2022-10-21T03:03:10.360Z,17.15
2022-10-21T03:05:37.318Z,16.27
2022-10-21T03:08:04.401Z,16.02
2022-10-21T03:10:31.421Z,16.58
2022-10-21T03:12:58.299Z,15.43
2022-10-21T03:15:25.211Z,15.60
2022-10-21T03:17:52.130Z,15.20
2022-10-21T03:20:19.251Z,14.90
2022-10-21T03:22:46.222Z,15.07
2022-10-21T03:25:13.847Z,15.68
2022-10-21T03:27:40.764Z,14.57
2022-10-21T03:30:08.834Z,14.70
2022-10-21T03:32:36.046Z,14.43
2022-10-21T03:35:03.678Z,14.10
2022-10-21T03:37:30.588Z,14.45
2022-10-21T03:39:57.473Z,13.65
2022-10-21T03:42:24.506Z,12.98
2022-10-21T03:44:51.386Z,13.50
2022-10-21T03:47:18.262Z,13.20
2022-10-21T03:49:45.153Z,13.98
2022-10-21T03:52:13.277Z,12.80
2022-10-21T03:54:40.206Z,12.80
2022-10-21T03:57:07.110Z,13.57
2022-10-21T03:59:34.162Z,13.20
2022-10-21T04:02:01.139Z,13.70
2022-10-21T04:04:28.214Z,13.05
2022-10-21T04:06:55.115Z,11.90
2022-10-21T04:09:21.994Z,13.13
2022-10-21T04:11:48.890Z,13.00
2022-10-21T04:14:15.872Z,12.70
2022-10-21T04:16:42.974Z,12.43
2022-10-21T04:19:15.222Z,12.95
2022-10-21T04:21:42.108Z,12.57
2022-10-21T04:24:08.976Z,11.60
2022-10-21T04:26:35.905Z,12.10
2022-10-21T04:29:02.813Z,13.77
2022-10-21T04:31:32.064Z,12.57
2022-10-21T04:33:59.330Z,12.50
2022-10-21T04:36:26.328Z,13.25
2022-10-21T04:38:53.392Z,13.35
2022-10-21T04:41:20.285Z,13.68
2022-10-21T04:43:47.176Z,12.68
2022-10-21T04:46:16.926Z,14.25
2022-10-21T04:48:44.134Z,13.65
2022-10-21T04:51:11.089Z,12.45
2022-10-21T04:53:38.164Z,14.20
2022-10-21T04:56:05.483Z,12.93
2022-10-21T04:58:32.420Z,13.85
2022-10-21T05:00:59.394Z,13.68
2022-10-21T05:03:26.337Z,13.20
2022-10-21T05:05:53.602Z,14.25
2022-10-21T05:08:21.381Z,14.07
2022-10-21T05:10:48.682Z,13.45
2022-10-21T05:13:15.783Z,14.27
2022-10-21T05:15:42.658Z,14.45
2022-10-21T05:18:09.540Z,14.32
2022-10-21T05:20:36.416Z,13.68
2022-10-21T05:23:03.336Z,13.55
2022-10-21T05:25:33.291Z,12.95
2022-10-21T05:28:01.426Z,13.88
2022-10-21T05:30:28.373Z,14.00
2022-10-21T05:32:55.383Z,13.23
2022-10-21T05:35:22.229Z,13.80
2022-10-21T05:37:49.175Z,13.07
2022-10-21T05:43:56.949Z,15.07
2022-10-21T05:46:23.846Z,14.32
2022-10-21T05:48:50.902Z,13.40
2022-10-21T05:51:18.272Z,14.48
2022-10-21T05:53:45.212Z,14.07
2022-10-21T05:56:12.264Z,13.35
2022-10-21T05:58:39.149Z,13.73
2022-10-21T06:01:06.077Z,12.52
2022-10-21T06:03:35.070Z,14.98
2022-10-21T06:06:04.947Z,14.50
2022-10-21T06:08:34.469Z,15.48
2022-10-21T06:11:09.418Z,15.35
2022-10-21T06:13:37.028Z,15.70
2022-10-21T06:18:33.232Z,16.75
2022-10-21T06:21:00.233Z,17.38
2022-10-21T06:23:27.341Z,16.67
2022-10-21T06:26:00.335Z,15.32
2022-10-21T06:28:28.877Z,14.60
2022-10-21T06:30:56.023Z,16.98
2022-10-21T06:33:26.243Z,15.40
2022-10-21T06:35:55.157Z,13.48
2022-10-21T06:38:22.522Z,15.50
2022-10-21T06:40:49.516Z,16.25
2022-10-21T06:43:16.831Z,13.75
2022-10-21T06:45:44.402Z,14.18
2022-10-21T06:48:13.673Z,14.07
2022-10-21T06:50:40.678Z,14.35
2022-10-21T06:53:07.719Z,13.88
2022-10-21T06:55:34.674Z,14.70
2022-10-21T06:58:01.595Z,15.10
2022-10-21T07:02:55.368Z,14.07
2022-10-21T07:05:22.281Z,14.40
2022-10-21T07:07:49.188Z,14.40
2022-10-21T07:10:16.120Z,14.70
2022-10-21T07:12:43.253Z,14.63
2022-10-21T07:15:10.550Z,14.52
2022-10-21T07:17:37.720Z,14.27
2022-10-21T07:20:05.199Z,15.30
2022-10-21T07:22:32.206Z,13.52
2022-10-21T07:25:02.510Z,12.73
2022-10-21T07:27:29.505Z,15.00
2022-10-21T07:29:56.416Z,13.20
2022-10-21T07:32:23.389Z,13.23
2022-10-21T07:34:50.283Z,13.32
2022-10-21T07:37:17.250Z,13.23
2022-10-21T07:39:44.208Z,14.80
2022-10-21T07:42:11.144Z,14.05
2022-10-21T07:44:38.054Z,14.73
2022-10-21T07:47:04.936Z,14.48
2022-10-21T07:49:31.850Z,13.45
2022-10-21T07:51:58.835Z,13.55
2022-10-21T07:54:25.789Z,14.48
2022-10-21T07:56:53.185Z,13.10
2022-10-21T07:59:21.417Z,14.60
2022-10-21T08:04:19.367Z,14.63
2022-10-21T08:06:47.698Z,14.90
2022-10-21T08:09:16.095Z,14.48
2022-10-21T08:11:43.666Z,14.60
2022-10-21T08:14:10.816Z,15.98
2022-10-21T08:16:38.372Z,14.98
2022-10-21T08:19:06.705Z,14.43
2022-10-21T08:21:34.371Z,14.60
2022-10-21T08:24:05.106Z,15.57
2022-10-21T08:26:32.652Z,15.43
2022-10-21T08:29:00.014Z,14.68
2022-10-21T08:31:27.073Z,14.40
2022-10-21T08:33:54.856Z,15.45
2022-10-21T08:36:25.031Z,17.35
2022-10-21T08:38:52.874Z,16.52
2022-10-21T08:41:25.760Z,15.65
2022-10-21T08:43:54.483Z,14.65
2022-10-21T08:46:27.163Z,14.93
2022-10-21T08:49:04.117Z,13.90
2022-10-21T08:51:36.039Z,13.40
2022-10-21T08:54:10.777Z,13.45
2022-10-21T08:56:37.758Z,13.50
2022-10-21T08:59:21.433Z,11.90
2022-10-21T09:02:08.853Z,12.77
2022-10-21T09:04:49.538Z,12.00
2022-10-21T09:07:38.224Z,12.25
2022-10-21T09:10:28.900Z,12.65
2022-10-21T09:13:20.001Z,12.07
2022-10-21T09:15:52.965Z,12.70
2022-10-21T09:18:26.657Z,12.73
2022-10-21T09:21:17.411Z,12.50
2022-10-21T09:23:57.658Z,12.85
2022-10-21T09:26:33.465Z,11.95
2022-10-21T09:29:26.696Z,12.35
2022-10-21T09:32:13.680Z,11.48
2022-10-21T09:34:55.050Z,12.10
2022-10-21T09:37:47.987Z,11.85
2022-10-21T09:40:26.918Z,12.75
2022-10-21T09:42:56.107Z,14.40
2022-10-21T09:45:40.257Z,11.98
2022-10-21T09:49:08.203Z,12.82
2022-10-21T09:51:37.936Z,13.07
2022-10-21T09:54:19.803Z,12.02
2022-10-21T09:57:00.393Z,12.65
2022-10-21T09:59:32.955Z,13.60
2022-10-21T10:02:08.458Z,11.88
2022-10-21T10:04:36.098Z,12.43
2022-10-21T10:07:36.864Z,13.82
2022-10-21T10:10:24.611Z,13.05
2022-10-21T10:12:58.776Z,12.40
2022-10-21T10:15:35.146Z,13.65
2022-10-21T10:18:02.132Z,13.38
2022-10-21T10:20:29.388Z,13.07
2022-10-21T10:22:59.034Z,13.35
2022-10-21T10:25:32.810Z,13.45
2022-10-21T10:28:05.267Z,13.10
2022-10-21T10:30:45.378Z,12.65
2022-10-21T10:33:28.746Z,12.90
2022-10-21T10:35:58.969Z,14.75
2022-10-21T10:38:41.144Z,12.88
2022-10-21T10:41:11.278Z,16.08
2022-10-21T10:43:49.473Z,14.40
2022-10-21T10:46:35.653Z,13.38
2022-10-21T10:49:14.808Z,13.38
2022-10-21T10:51:45.682Z,13.55
2022-10-21T10:54:28.917Z,13.38
2022-10-21T10:57:12.838Z,15.60
2022-10-21T10:59:47.639Z,15.73
2022-10-21T11:02:43.555Z,14.05
2022-10-21T11:05:31.815Z,16.02
2022-10-21T11:08:04.456Z,14.13
2022-10-21T11:10:39.000Z,13.40
2022-10-21T11:13:20.310Z,14.00
2022-10-21T11:15:47.229Z,15.40
2022-10-21T11:18:30.276Z,15.25
2022-10-21T11:21:24.279Z,16.73
2022-10-21T11:24:17.581Z,13.82
2022-10-21T11:26:47.233Z,14.40
2022-10-21T11:29:38.482Z,15.00
2022-10-21T11:32:28.910Z,13.80
2022-10-21T11:35:21.177Z,14.63
2022-10-21T11:38:03.901Z,13.65
2022-10-21T11:40:48.540Z,13.38
2022-10-21T11:43:21.373Z,14.60
2022-10-21T11:46:00.351Z,14.13
2022-10-21T11:48:39.502Z,14.02
2022-10-21T11:51:16.605Z,14.18
2022-10-21T11:54:12.980Z,14.45
2022-10-21T11:56:47.254Z,14.48
2022-10-21T12:02:10.851Z,13.85
2022-10-21T12:04:56.209Z,13.98
2022-10-21T12:07:43.420Z,14.63
2022-10-21T12:10:27.457Z,14.77
2022-10-21T12:12:56.027Z,16.50
2022-10-21T12:15:29.454Z,15.38
2022-10-21T12:17:58.206Z,16.13
2022-10-21T12:20:27.400Z,17.33
2022-10-21T12:23:05.397Z,17.73
2022-10-21T12:26:11.236Z,17.35
2022-10-21T12:29:00.206Z,17.17
2022-10-21T12:31:30.150Z,18.80
2022-10-21T12:33:57.963Z,19.00
2022-10-21T12:36:24.833Z,17.65
2022-10-21T12:38:57.318Z,18.67
2022-10-21T12:41:24.161Z,19.38
2022-10-21T12:44:03.259Z,19.83
2022-10-21T12:46:34.801Z,19.38
2022-10-21T12:49:21.528Z,19.95
2022-10-21T12:51:58.622Z,21.83
2022-10-21T12:54:30.603Z,20.70
2022-10-21T12:57:04.816Z,19.30
2022-10-21T12:59:40.964Z,21.60
2022-10-21T13:02:10.767Z,19.80
2022-10-21T13:04:37.578Z,20.13
2022-10-21T13:07:05.389Z,19.50
2022-10-21T13:09:42.133Z,20.15
2022-10-21T13:12:08.992Z,20.13
2022-10-21T13:15:00.541Z,20.95
2022-10-21T13:17:33.391Z,20.30
2022-10-21T13:20:15.597Z,21.65
2022-10-21T13:22:44.690Z,20.20
2022-10-21T13:25:25.617Z,20.38
2022-10-21T13:27:59.876Z,21.38
2022-10-21T13:30:33.436Z,20.05
2022-10-21T13:33:19.544Z,20.80
2022-10-21T13:35:53.552Z,19.30
2022-10-21T13:38:20.359Z,18.42
2022-10-21T13:40:53.518Z,19.27
2022-10-21T13:43:29.251Z,18.88
2022-10-21T13:46:05.484Z,19.13
2022-10-21T13:48:41.495Z,19.40
2022-10-21T13:51:22.018Z,19.92
2022-10-21T13:53:52.827Z,19.23
2022-10-21T13:56:25.486Z,18.67
2022-10-21T13:58:53.040Z,18.63
2022-10-21T14:01:26.127Z,17.63
2022-10-21T14:03:56.108Z,18.42
2022-10-21T14:06:32.221Z,18.08
2022-10-21T14:09:08.176Z,19.67
2022-10-21T14:11:46.308Z,18.17
2022-10-21T14:14:17.328Z,17.88
2022-10-21T14:16:54.719Z,17.92
2022-10-21T14:19:26.380Z,19.05
2022-10-21T14:21:55.451Z,17.92
2022-10-21T14:24:43.347Z,19.75
2022-10-21T14:27:19.403Z,18.63
2022-10-21T14:29:47.568Z,19.10
2022-10-21T14:32:17.348Z,18.95
2022-10-21T14:35:22.910Z,17.75
2022-10-21T14:40:32.531Z,18.08
2022-10-21T14:43:27.143Z,19.58
2022-10-21T14:45:54.433Z,18.80
2022-10-21T14:48:50.741Z,18.65
2022-10-21T14:51:21.304Z,19.80
2022-10-21T14:54:07.487Z,19.20
2022-10-21T14:56:43.339Z,19.45
2022-10-21T14:59:23.969Z,18.60
2022-10-21T15:01:51.223Z,19.05
2022-10-21T15:04:39.841Z,18.98
2022-10-21T15:07:17.974Z,19.60
2022-10-21T15:10:18.790Z,18.88
2022-10-21T15:12:51.498Z,19.88
2022-10-21T15:15:40.231Z,19.08
2022-10-21T15:18:26.470Z,20.02
2022-10-21T15:21:07.931Z,19.02
2022-10-21T15:23:50.239Z,19.27
2022-10-21T15:26:23.935Z,19.98
2022-10-21T15:28:51.885Z,20.77
2022-10-21T15:31:22.219Z,21.23
2022-10-21T15:33:50.497Z,21.35
2022-10-21T15:36:19.355Z,22.40
2022-10-21T15:38:47.446Z,22.27
2022-10-21T15:41:19.474Z,22.73
2022-10-21T15:43:52.516Z,20.48
2022-10-21T15:46:19.442Z,21.65
2022-10-21T15:48:46.286Z,22.48
2022-10-21T15:51:13.237Z,22.00
2022-10-21T15:53:43.741Z,21.55
2022-10-21T15:56:19.676Z,22.85
2022-10-21T15:58:47.141Z,22.10
2022-10-21T16:01:16.639Z,21.63
2022-10-21T16:03:45.085Z,21.15
2022-10-21T16:06:17.766Z,22.27
2022-10-21T16:08:45.035Z,21.13
2022-10-21T16:11:18.820Z,21.08
2022-10-21T16:13:52.774Z,22.88
2022-10-21T16:16:26.224Z,22.27
2022-10-21T16:18:53.844Z,22.67
2022-10-21T16:21:22.586Z,21.65
2022-10-21T16:23:49.650Z,21.58
2022-10-21T16:26:21.707Z,21.42
2022-10-21T16:28:53.079Z,21.25
2022-10-21T16:31:20.025Z,20.05
2022-10-21T16:33:47.250Z,20.88
2022-10-21T16:36:19.933Z,19.50
2022-10-21T16:38:48.270Z,20.65
2022-10-21T16:41:18.667Z,20.67
2022-10-21T16:43:46.033Z,21.88
2022-10-21T16:46:35.840Z,19.05
2022-10-21T16:49:09.215Z,19.65
2022-10-21T16:51:39.436Z,20.00
2022-10-21T16:54:06.462Z,19.85
2022-10-21T16:56:33.337Z,18.05
2022-10-21T16:59:00.199Z,18.98
2022-10-21T17:01:27.697Z,18.42
2022-10-21T17:03:54.759Z,18.38
2022-10-21T17:06:24.279Z,18.33
2022-10-21T17:08:52.598Z,17.13
2022-10-21T17:11:25.548Z,18.30
2022-10-21T17:13:52.455Z,17.80
2022-10-21T17:16:20.408Z,18.00
2022-10-21T17:18:48.335Z,16.90
2022-10-21T17:21:34.024Z,17.95
2022-10-21T17:24:05.645Z,17.10
2022-10-21T17:26:36.734Z,18.70
2022-10-21T17:29:03.601Z,18.60
2022-10-21T17:31:31.029Z,18.95
2022-10-21T17:34:06.284Z,18.17
2022-10-21T17:36:37.191Z,18.85
2022-10-21T17:39:04.947Z,20.25
2022-10-21T17:41:32.534Z,19.50
2022-10-21T17:44:01.915Z,18.42
2022-10-21T17:46:28.972Z,18.45
2022-10-21T17:48:57.684Z,19.95
2022-10-21T17:51:25.390Z,20.00
2022-10-21T17:53:53.828Z,19.38
2022-10-21T17:56:21.128Z,18.40
2022-10-21T17:58:53.486Z,20.10
2022-10-21T18:01:22.712Z,21.23
2022-10-21T18:03:50.036Z,18.98
2022-10-21T18:06:17.309Z,20.25
2022-10-21T18:08:44.546Z,21.05
2022-10-21T18:11:14.509Z,19.90
2022-10-21T18:13:42.052Z,19.40
2022-10-21T18:16:31.145Z,20.30
2022-10-21T18:19:01.718Z,19.73
2022-10-21T18:21:30.745Z,22.30
2022-10-21T18:23:57.806Z,20.92
2022-10-21T18:26:27.563Z,23.15
2022-10-21T18:28:59.647Z,20.27
2022-10-21T18:31:30.070Z,21.08
2022-10-21T18:33:58.210Z,23.60
2022-10-21T18:36:25.744Z,23.13
2022-10-21T18:38:53.003Z,22.10
2022-10-21T18:41:21.366Z,22.73
2022-10-21T18:44:02.522Z,24.75
2022-10-21T18:46:30.411Z,25.52
2022-10-21T18:48:58.506Z,25.58
2022-10-21T18:51:25.488Z,23.20
2022-10-21T18:53:53.394Z,23.38
2022-10-21T18:56:22.829Z,25.63
2022-10-21T18:58:50.188Z,23.90
2022-10-21T19:01:18.238Z,26.17
2022-10-21T19:03:45.780Z,25.42
2022-10-21T19:06:15.504Z,26.27
2022-10-21T19:08:42.639Z,25.23
2022-10-21T19:11:09.582Z,26.55
2022-10-21T19:13:36.480Z,22.05
2022-10-21T19:16:03.472Z,23.05
2022-10-21T19:18:30.351Z,28.60
2022-10-21T19:20:57.416Z,27.52
2022-10-21T19:23:24.317Z,28.08
2022-10-21T19:25:51.198Z,31.35
2022-10-21T19:28:18.141Z,28.15
2022-10-21T19:30:45.765Z,25.73
2022-10-21T19:33:12.662Z,24.30
2022-10-21T19:35:39.514Z,24.10
2022-10-21T19:38:11.643Z,23.10
2022-10-21T19:40:42.985Z,22.38
2022-10-21T19:43:10.115Z,23.60
2022-10-21T19:45:37.421Z,23.08
2022-10-21T19:48:04.534Z,24.15
2022-10-21T19:50:31.446Z,25.42
2022-10-21T19:52:58.383Z,22.90
2022-10-21T19:55:25.400Z,24.85
2022-10-21T19:57:52.352Z,23.98
2022-10-21T20:00:19.327Z,25.75
2022-10-21T20:02:46.197Z,25.77
2022-10-21T20:05:13.105Z,25.40
2022-10-21T20:07:41.140Z,26.02
2022-10-21T20:10:08.821Z,25.25
2022-10-21T20:12:36.808Z,26.10
2022-10-21T20:15:05.480Z,25.75
2022-10-21T20:20:04.714Z,23.70
2022-10-21T20:22:31.591Z,24.27
2022-10-21T20:24:58.476Z,25.52
2022-10-21T20:27:25.422Z,25.08
2022-10-21T20:29:53.632Z,25.25
2022-10-21T20:32:20.626Z,24.77
2022-10-21T20:34:48.995Z,28.48
2022-10-21T20:37:15.895Z,26.15
2022-10-21T20:39:42.959Z,25.70
2022-10-21T20:42:09.935Z,27.13
2022-10-21T20:44:37.019Z,25.88
2022-10-21T20:47:04.126Z,27.55
2022-10-21T20:49:31.098Z,26.63
2022-10-21T20:51:57.976Z,29.52
2022-10-21T20:54:28.131Z,27.23
2022-10-21T20:56:55.036Z,29.40
2022-10-21T20:59:21.991Z,27.05
2022-10-21T21:01:48.989Z,27.02
2022-10-21T21:04:17.705Z,27.98
2022-10-21T21:06:46.708Z,27.83
2022-10-21T21:09:37.672Z,29.05
2022-10-21T21:12:03.866Z,30.17
2022-10-21T21:14:31.707Z,32.55
2022-10-21T21:16:58.765Z,32.03
2022-10-21T21:19:25.933Z,32.03
2022-10-21T21:21:53.037Z,29.98
2022-10-21T21:24:19.981Z,30.55
2022-10-21T21:26:46.891Z,29.55
2022-10-21T21:29:14.375Z,31.50
2022-10-21T21:31:41.959Z,30.15
2022-10-21T21:34:09.701Z,30.95
2022-10-21T21:36:37.387Z,30.20
2022-10-21T21:39:05.414Z,30.40
2022-10-21T21:41:32.706Z,30.02
2022-10-21T21:43:59.837Z,29.85
2022-10-21T21:46:27.325Z,29.58
2022-10-21T21:48:59.479Z,29.50
2022-10-21T21:51:29.275Z,31.33
2022-10-21T21:53:57.410Z,29.23
2022-10-21T21:56:25.382Z,29.52
2022-10-21T21:58:55.044Z,31.10
2022-10-21T22:01:25.361Z,28.45
2022-10-21T22:03:53.000Z,30.42
2022-10-21T22:06:21.789Z,30.40
2022-10-21T22:08:50.110Z,29.15
2022-10-21T22:11:20.366Z,28.52
2022-10-21T22:13:47.301Z,29.38
2022-10-21T22:16:16.161Z,28.17
2022-10-21T22:18:44.017Z,29.20
2022-10-21T22:21:13.473Z,28.20
2022-10-21T22:23:41.049Z,28.70
2022-10-21T22:26:09.447Z,29.52
2022-10-21T22:28:36.554Z,27.65
2022-10-21T22:31:09.604Z,28.35
2022-10-21T22:33:37.487Z,29.95
2022-10-21T22:36:05.645Z,31.38
2022-10-21T22:38:32.933Z,29.50
2022-10-21T22:41:01.985Z,29.88
2022-10-21T22:43:29.761Z,30.40
2022-10-21T22:46:05.346Z,31.13
2022-10-21T22:48:43.837Z,29.75
2022-10-21T22:51:10.732Z,28.40
2022-10-21T22:53:37.888Z,28.20
2022-10-21T22:56:04.955Z,28.65
2022-10-21T22:58:31.922Z,29.58
2022-10-21T23:00:59.579Z,28.48
2022-10-21T23:03:26.487Z,29.40
2022-10-21T23:05:53.536Z,27.60
2022-10-21T23:08:20.447Z,28.73
2022-10-21T23:10:48.973Z,27.33
2022-10-21T23:13:16.245Z,28.40
2022-10-21T23:15:43.967Z,27.85
2022-10-21T23:18:11.541Z,28.75
2022-10-21T23:20:38.614Z,29.02
2022-10-21T23:23:05.605Z,30.50
2022-10-21T23:25:32.815Z,29.38
2022-10-21T23:27:59.696Z,29.08
2022-10-21T23:30:26.609Z,30.13
2022-10-21T23:32:53.834Z,28.75
2022-10-21T23:35:21.136Z,30.45
2022-10-21T23:37:48.073Z,29.67
2022-10-21T23:40:14.968Z,29.02
2022-10-21T23:42:42.966Z,27.50
2022-10-21T23:45:11.491Z,28.02
2022-10-21T23:47:39.813Z,29.75
2022-10-21T23:50:08.570Z,29.88
2022-10-21T23:52:36.367Z,28.35
2022-10-21T23:55:05.343Z,27.70
2022-10-21T23:57:32.326Z,29.38
2022-10-21T23:59:59.351Z,29.40
